Time,TemperatureF,DewpointF,PressureIn,WindDirection,WindDirectionDegrees,WindSpeedMPH,WindSpeedGustMPH,Humidity,HourlyPrecipIn,Conditions,Clouds,dailyrainin,SoftwareType,DateUTC
2013-08-17 00:23:00,59.0,57.0,30.21,West,275,0.0,0.0,93,0.00,,,0.00,,2013-08-17 04:23:00,
2013-08-17 00:53:00,59.0,58.0,30.22,West,275,0.0,0.0,95,0.00,,,0.00,,2013-08-17 04:53:00,
2013-08-17 01:13:00,58.0,57.0,30.22,West,275,0.0,0.0,95,0.00,,,0.00,,2013-08-17 05:13:00,
2013-08-17 01:22:00,58.0,57.0,30.22,West,275,0.0,0.0,95,0.00,,,0.00,,2013-08-17 05:22:00,
2013-08-17 01:52:00,58.0,57.0,30.21,West,275,0.0,0.0,96,0.00,,,0.00,,2013-08-17 05:52:00,
2013-08-17 02:21:00,57.0,56.0,30.22,West,275,0.0,0.0,97,0.00,,,0.00,,2013-08-17 06:21:00,
2013-08-17 02:52:00,56.0,55.0,30.22,West,275,0.0,0.0,97,0.00,,,0.00,,2013-08-17 06:52:00,
2013-08-17 03:22:00,56.0,55.0,30.22,West,275,0.0,0.0,98,0.00,,,0.00,,2013-08-17 07:22:00,
2013-08-17 03:52:00,56.0,55.0,30.22,West,275,0.0,0.0,98,0.00,,,0.00,,2013-08-17 07:52:00,
2013-08-17 04:21:00,55.0,54.0,30.22,West,275,0.0,0.0,98,0.00,,,0.00,,2013-08-17 08:21:00,
2013-08-17 04:52:00,55.0,54.0,30.23,West,275,0.0,0.0,98,0.00,,,0.00,,2013-08-17 08:52:00,
2013-08-17 05:11:00,55.0,54.0,30.23,West,275,0.0,0.0,98,0.00,,,0.00,,2013-08-17 09:11:00,
2013-08-17 05:21:00,55.0,54.0,30.23,West,275,0.0,0.0,98,0.00,,,0.00,,2013-08-17 09:21:00,
2013-08-17 05:53:00,54.0,53.0,30.24,West,275,0.0,0.0,98,0.00,,,0.00,,2013-08-17 09:53:00,
2013-08-17 06:23:00,54.0,53.0,30.23,West,275,0.0,0.0,98,0.00,,,0.00,,2013-08-17 10:23:00,
2013-08-17 06:53:00,54.0,54.0,30.24,West,275,0.0,0.0,99,0.00,,,0.00,,2013-08-17 10:53:00,
2013-08-17 07:22:00,54.0,54.0,30.26,West,275,0.0,0.0,99,0.00,,,0.00,,2013-08-17 11:22:00,
2013-08-17 07:52:00,55.0,55.0,30.26,West,275,0.0,0.0,99,0.00,,,0.00,,2013-08-17 11:52:00,
2013-08-17 08:21:00,58.0,58.0,30.26,West,275,0.0,0.0,100,0.00,,,0.00,,2013-08-17 12:21:00,
2013-08-17 08:52:00,61.0,61.0,30.27,West,275,0.0,0.0,100,0.00,,,0.00,,2013-08-17 12:52:00,
2013-08-17 09:21:00,65.0,63.0,30.27,West,275,0.0,1.0,93,0.00,,,0.00,,2013-08-17 13:21:00,
2013-08-17 09:52:00,70.0,63.0,30.27,NE,39,0.0,2.0,78,0.00,,,0.00,,2013-08-17 13:52:00,
2013-08-17 10:21:00,74.0,65.0,30.27,SSE,148,0.0,2.0,73,0.00,,,0.00,,2013-08-17 14:21:00,
2013-08-17 10:52:00,77.0,64.0,30.27,SE,132,1.0,2.0,64,0.00,,,0.00,,2013-08-17 14:52:00,
2013-08-17 11:22:00,78.0,62.0,30.27,East,80,1.0,3.0,59,0.00,,,0.00,,2013-08-17 15:22:00,
2013-08-17 11:54:00,79.0,61.0,30.27,ENE,76,0.0,3.0,55,0.00,,,0.00,,2013-08-17 15:54:00,
2013-08-17 12:12:00,79.0,57.0,30.26,SE,128,0.0,5.0,47,0.00,,,0.00,,2013-08-17 16:12:00,
2013-08-17 12:23:00,79.0,57.0,30.26,SE,128,0.0,5.0,47,0.00,,,0.00,,2013-08-17 16:23:00,
2013-08-17 12:53:00,81.0,59.0,30.25,SW,225,1.0,5.0,47,0.00,,,0.00,,2013-08-17 16:53:00,
2013-08-17 13:23:00,80.0,59.0,30.25,NE,56,0.0,5.0,49,0.00,,,0.00,,2013-08-17 17:23:00,
2013-08-17 13:52:00,82.0,58.0,30.24,East,101,1.0,4.0,44,0.00,,,0.00,,2013-08-17 17:52:00,
2013-08-17 14:12:00,81.0,57.0,30.24,SW,215,1.0,3.0,44,0.00,,,0.00,,2013-08-17 18:12:00,
2013-08-17 14:21:00,81.0,57.0,30.24,SW,215,1.0,3.0,44,0.00,,,0.00,,2013-08-17 18:21:00,
2013-08-17 14:52:00,80.0,55.0,30.24,WSW,255,0.0,5.0,43,0.00,,,0.00,,2013-08-17 18:52:00,
2013-08-17 15:52:00,81.0,58.0,30.23,East,90,1.0,2.0,46,0.00,,,0.00,,2013-08-17 19:52:00,
2013-08-17 16:21:00,80.0,56.0,30.22,SW,225,3.0,6.0,44,0.00,,,0.00,,2013-08-17 20:21:00,
2013-08-17 16:52:00,79.0,57.0,30.22,WSW,244,0.0,6.0,47,0.00,,,0.00,,2013-08-17 20:52:00,
2013-08-17 17:01:00,79.0,57.0,30.22,WSW,244,0.0,6.0,47,0.00,,,0.00,,2013-08-17 21:01:00,
2013-08-17 17:22:00,80.0,57.0,30.22,SSW,193,1.0,5.0,46,0.00,,,0.00,,2013-08-17 21:22:00,
2013-08-17 17:54:00,78.0,59.0,30.22,NNW,344,0.0,1.0,53,0.00,,,0.00,,2013-08-17 21:54:00,
2013-08-17 18:03:00,78.0,59.0,30.22,NNW,344,0.0,1.0,53,0.00,,,0.00,,2013-08-17 22:03:00,
2013-08-17 18:23:00,74.0,61.0,30.22,NW,309,0.0,0.0,64,0.00,,,0.00,,2013-08-17 22:23:00,
2013-08-17 18:52:00,72.0,62.0,30.22,NW,309,0.0,0.0,70,0.00,,,0.00,,2013-08-17 22:52:00,
2013-08-17 19:52:00,70.0,62.0,30.24,NW,309,0.0,0.0,77,0.00,,,0.00,,2013-08-17 23:52:00,
2013-08-17 20:21:00,68.0,62.0,30.24,NW,309,0.0,0.0,81,0.00,,,0.00,,2013-08-18 00:21:00,
2013-08-17 22:52:00,63.0,61.0,30.27,NW,309,0.0,0.0,92,0.00,,,0.00,,2013-08-18 02:52:00,